createdAt,value
2018-06-29T00:00:05.433Z,2.90
2018-06-29T00:01:05.412Z,3.70
2018-06-29T00:02:05.403Z,4.00
2018-06-29T00:03:05.397Z,4.10
2018-06-29T00:04:05.473Z,5.70
2018-06-29T00:05:05.368Z,6.50
2018-06-29T00:06:05.359Z,4.80
2018-06-29T00:07:05.333Z,3.00
2018-06-29T00:08:05.334Z,5.60
2018-06-29T00:09:05.307Z,6.30
2018-06-29T00:10:05.307Z,4.90
2018-06-29T00:11:05.279Z,2.60
2018-06-29T00:12:05.275Z,2.90
2018-06-29T00:13:05.255Z,3.00
2018-06-29T00:14:05.239Z,3.90
2018-06-29T00:15:05.230Z,2.60
2018-06-29T00:16:05.217Z,3.10
2018-06-29T00:17:05.200Z,5.00
2018-06-29T00:18:05.188Z,5.50
2018-06-29T00:19:05.175Z,3.20
2018-06-29T00:20:05.161Z,2.90
2018-06-29T00:21:05.150Z,3.20
2018-06-29T00:22:05.135Z,3.40
2018-06-29T00:23:05.122Z,2.90
2018-06-29T00:24:05.109Z,4.70
2018-06-29T00:25:05.095Z,2.70
2018-06-29T00:26:05.091Z,5.50
2018-06-29T00:27:05.077Z,5.50
2018-06-29T00:28:05.055Z,4.60
2018-06-29T00:29:05.044Z,4.70
2018-06-29T00:30:05.030Z,2.90
2018-06-29T00:31:05.074Z,2.90
2018-06-29T00:32:05.001Z,4.40
2018-06-29T00:33:04.997Z,2.90
2018-06-29T00:34:04.975Z,3.80
2018-06-29T00:35:04.962Z,3.20
2018-06-29T00:36:04.955Z,4.00
2018-06-29T00:37:04.939Z,4.60
2018-06-29T00:38:04.923Z,3.30
2018-06-29T00:39:04.910Z,3.40
2018-06-29T00:40:04.899Z,3.00
2018-06-29T00:41:04.882Z,3.50
2018-06-29T00:42:04.870Z,6.50
2018-06-29T00:43:04.855Z,3.10
2018-06-29T00:44:04.847Z,4.50
2018-06-29T00:45:04.829Z,5.10
2018-06-29T00:46:04.815Z,4.70
2018-06-29T00:47:04.853Z,3.20
2018-06-29T00:48:04.789Z,4.70
2018-06-29T00:49:04.775Z,5.00
2018-06-29T00:50:04.763Z,4.90
2018-06-29T00:51:04.749Z,2.90
2018-06-29T00:52:04.735Z,4.80
2018-06-29T00:53:04.721Z,4.20
2018-06-29T00:54:04.709Z,3.20
2018-06-29T00:55:04.696Z,3.80
2018-06-29T00:56:04.683Z,3.50
2018-06-29T00:57:04.669Z,4.70
2018-06-29T00:58:04.655Z,5.80
2018-06-29T00:59:04.650Z,4.00
2018-06-29T01:00:04.629Z,6.40
2018-06-29T01:01:04.621Z,3.90
2018-06-29T01:02:04.608Z,3.80
2018-06-29T01:03:04.604Z,5.30
2018-06-29T01:04:04.575Z,5.60
2018-06-29T01:05:04.557Z,4.40
2018-06-29T01:06:04.547Z,3.40
2018-06-29T01:07:04.532Z,3.00
2018-06-29T01:08:04.626Z,4.00
2018-06-29T01:09:04.506Z,3.90
2018-06-29T01:10:04.491Z,4.80
2018-06-29T01:11:04.477Z,3.60
2018-06-29T01:12:04.464Z,5.60
2018-06-29T01:13:04.450Z,5.50
2018-06-29T01:14:04.436Z,5.00
2018-06-29T01:15:04.425Z,3.70
2018-06-29T01:16:04.410Z,7.50
2018-06-29T01:17:04.403Z,4.20
2018-06-29T01:18:04.382Z,5.10
2018-06-29T01:19:04.369Z,3.50
2018-06-29T01:20:04.355Z,3.20
2018-06-29T01:21:04.350Z,3.60
2018-06-29T01:22:04.327Z,4.40
2018-06-29T01:23:04.314Z,4.00
2018-06-29T01:24:04.301Z,5.30
2018-06-29T01:25:04.287Z,3.70
2018-06-29T01:26:04.276Z,5.00
2018-06-29T01:27:04.257Z,4.60
2018-06-29T01:28:04.247Z,3.40
2018-06-29T01:29:04.230Z,4.60
2018-06-29T01:30:04.220Z,4.30
2018-06-29T01:31:04.203Z,3.10
2018-06-29T01:32:04.193Z,4.70
2018-06-29T01:33:04.176Z,4.60
2018-06-29T01:34:04.162Z,3.90
2018-06-29T01:35:04.149Z,3.80
2018-06-29T01:36:04.143Z,3.80
2018-06-29T01:37:04.120Z,4.90
2018-06-29T01:38:04.117Z,3.10
2018-06-29T01:39:04.093Z,4.50
2018-06-29T01:40:04.082Z,5.80
2018-06-29T01:41:04.065Z,7.60
2018-06-29T01:42:04.052Z,3.20
2018-06-29T01:43:04.037Z,5.40
2018-06-29T01:44:04.024Z,4.30
2018-06-29T01:45:04.011Z,5.50
2018-06-29T01:46:03.997Z,5.60
2018-06-29T01:47:03.990Z,4.60
2018-06-29T01:48:03.969Z,3.70
2018-06-29T01:49:03.958Z,5.70
2018-06-29T01:50:03.940Z,4.30
2018-06-29T01:51:03.926Z,5.40
2018-06-29T01:52:03.913Z,3.40
2018-06-29T01:53:03.898Z,4.50
2018-06-29T01:54:03.884Z,6.10
2018-06-29T01:55:03.872Z,3.10
2018-06-29T01:56:03.867Z,3.40
2018-06-29T01:57:03.843Z,5.00
2018-06-29T01:58:03.829Z,6.50
2018-06-29T01:59:03.816Z,3.80
2018-06-29T02:00:03.801Z,3.90
2018-06-29T02:01:03.787Z,3.60
2018-06-29T02:02:03.774Z,5.30
2018-06-29T02:03:03.758Z,4.60
2018-06-29T02:04:03.795Z,5.10
2018-06-29T02:05:03.732Z,4.90
2018-06-29T02:06:03.717Z,4.90
2018-06-29T02:07:03.706Z,4.90
2018-06-29T02:08:03.728Z,4.70
2018-06-29T02:09:03.679Z,5.30
2018-06-29T02:10:03.662Z,4.90
2018-06-29T02:11:03.647Z,3.80
2018-06-29T02:12:03.634Z,5.40
2018-06-29T02:13:03.619Z,5.00
2018-06-29T02:14:03.607Z,5.10
2018-06-29T02:15:03.592Z,4.40
2018-06-29T02:16:03.579Z,4.70
2018-06-29T02:17:03.564Z,6.80
2018-06-29T02:18:03.550Z,3.90
2018-06-29T02:19:03.537Z,3.70
2018-06-29T02:20:03.524Z,6.00
2018-06-29T02:21:03.512Z,3.50
2018-06-29T02:22:03.494Z,10.70
2018-06-29T02:23:03.478Z,6.10
2018-06-29T02:24:03.465Z,5.90
2018-06-29T02:25:03.451Z,6.70
2018-06-29T02:26:03.439Z,4.00
2018-06-29T02:27:03.425Z,5.50
2018-06-29T02:28:03.409Z,4.60
2018-06-29T02:29:03.394Z,6.00
2018-06-29T02:30:03.379Z,9.70
2018-06-29T02:31:03.369Z,5.20
2018-06-29T02:32:03.353Z,5.90
2018-06-29T02:33:03.340Z,5.00
2018-06-29T02:34:03.324Z,5.60
2018-06-29T02:35:03.309Z,5.40
2018-06-29T02:36:03.296Z,7.90
2018-06-29T02:37:03.281Z,4.00
2018-06-29T02:38:03.272Z,5.90
2018-06-29T02:39:03.251Z,4.40
2018-06-29T02:40:03.241Z,5.40
2018-06-29T02:41:03.224Z,4.60
2018-06-29T02:42:03.209Z,4.50
2018-06-29T02:43:03.196Z,4.60
2018-06-29T02:44:03.180Z,5.30
2018-06-29T02:45:03.172Z,4.20
2018-06-29T02:46:03.153Z,5.00
2018-06-29T02:47:03.145Z,4.30
2018-06-29T02:48:03.124Z,3.70
2018-06-29T02:49:03.116Z,4.90
2018-06-29T02:50:03.097Z,4.10
2018-06-29T02:51:03.080Z,3.90
2018-06-29T02:52:03.071Z,6.50
2018-06-29T02:53:03.055Z,8.60
2018-06-29T02:54:03.036Z,4.60
2018-06-29T02:55:03.028Z,3.80
2018-06-29T02:56:03.017Z,4.40
2018-06-29T02:57:02.997Z,6.40
2018-06-29T02:58:02.983Z,5.10
2018-06-29T02:59:02.964Z,5.90
2018-06-29T03:00:03.008Z,4.50
2018-06-29T03:01:02.936Z,4.60
2018-06-29T03:02:02.931Z,4.00
2018-06-29T03:03:02.907Z,5.20
2018-06-29T03:04:02.893Z,4.60
2018-06-29T03:05:02.877Z,8.10
2018-06-29T03:06:02.876Z,5.20
2018-06-29T03:07:02.859Z,5.30
2018-06-29T03:08:02.839Z,6.50
2018-06-29T03:09:02.820Z,5.20
2018-06-29T03:10:02.804Z,4.80
2018-06-29T03:11:02.792Z,5.00
2018-06-29T03:12:02.792Z,6.10
2018-06-29T03:13:02.762Z,5.30
2018-06-29T03:14:02.749Z,5.00
2018-06-29T03:15:02.736Z,5.70
2018-06-29T03:16:02.718Z,6.30
2018-06-29T03:17:02.703Z,7.00
2018-06-29T03:18:02.693Z,6.80
2018-06-29T03:19:02.678Z,4.00
2018-06-29T03:20:02.665Z,6.10
2018-06-29T03:21:02.646Z,6.00
2018-06-29T03:22:02.644Z,7.40
2018-06-29T03:23:02.616Z,11.60
2018-06-29T03:24:02.604Z,5.00
2018-06-29T03:25:02.774Z,5.50
2018-06-29T03:26:02.571Z,5.40
2018-06-29T03:27:02.557Z,7.30
2018-06-29T03:28:02.594Z,4.60
2018-06-29T03:29:02.527Z,5.70
2018-06-29T03:30:02.515Z,5.50
2018-06-29T03:31:02.503Z,5.50
2018-06-29T03:32:02.486Z,7.10
2018-06-29T03:33:02.528Z,5.90
2018-06-29T03:34:02.456Z,5.90
2018-06-29T03:35:02.441Z,6.40
2018-06-29T03:36:02.428Z,6.70
2018-06-29T03:37:02.412Z,7.80
2018-06-29T03:38:02.395Z,5.70
2018-06-29T03:39:02.391Z,6.50
2018-06-29T03:40:02.367Z,5.40
2018-06-29T03:41:02.354Z,7.20
2018-06-29T03:42:02.338Z,6.40
2018-06-29T03:43:02.322Z,5.00
2018-06-29T03:44:02.309Z,5.20
2018-06-29T03:45:02.295Z,6.10
2018-06-29T03:46:02.281Z,6.60
2018-06-29T03:47:02.265Z,7.90
2018-06-29T03:48:02.253Z,5.30
2018-06-29T03:49:02.236Z,5.20
2018-06-29T03:50:02.220Z,5.70
2018-06-29T03:51:02.208Z,6.30
2018-06-29T03:52:02.192Z,5.30
2018-06-29T03:53:02.175Z,5.50
2018-06-29T03:54:02.161Z,6.70
2018-06-29T03:55:02.147Z,5.40
2018-06-29T03:56:02.132Z,10.30
2018-06-29T03:57:02.119Z,5.10
2018-06-29T03:58:02.102Z,6.60
2018-06-29T03:59:02.088Z,7.80
2018-06-29T04:00:02.072Z,5.50
2018-06-29T04:01:02.059Z,6.50
2018-06-29T04:02:02.044Z,6.40
2018-06-29T04:03:02.031Z,9.50
2018-06-29T04:04:02.030Z,6.60
2018-06-29T04:05:01.999Z,7.60
2018-06-29T04:06:01.985Z,5.80
2018-06-29T04:07:01.975Z,7.10
2018-06-29T04:08:01.964Z,7.20
2018-06-29T04:09:01.940Z,5.90
2018-06-29T04:10:01.925Z,8.20
2018-06-29T04:11:01.910Z,10.80
2018-06-29T04:12:01.897Z,7.90
2018-06-29T04:13:01.978Z,6.00
2018-06-29T04:14:01.866Z,7.70
2018-06-29T04:15:01.852Z,10.90
2018-06-29T04:16:01.836Z,6.30
2018-06-29T04:17:01.828Z,8.40
2018-06-29T04:18:01.807Z,9.00
2018-06-29T04:19:01.791Z,6.60
2018-06-29T04:20:01.779Z,9.60
2018-06-29T04:21:01.767Z,4.60
2018-06-29T04:22:01.747Z,8.30
2018-06-29T04:23:01.733Z,6.40
2018-06-29T04:24:01.719Z,7.50
2018-06-29T04:25:01.703Z,6.90
2018-06-29T04:26:01.689Z,7.40
2018-06-29T04:27:01.677Z,6.70
2018-06-29T04:28:01.660Z,5.50
2018-06-29T04:29:01.644Z,6.20
2018-06-29T04:30:01.639Z,6.30
2018-06-29T04:31:01.615Z,5.90
2018-06-29T04:32:01.608Z,6.90
2018-06-29T04:33:01.594Z,5.90
2018-06-29T04:34:01.571Z,8.90
2018-06-29T04:35:01.558Z,6.30
2018-06-29T04:36:01.542Z,9.00
2018-06-29T04:37:01.537Z,7.40
2018-06-29T04:38:01.523Z,7.00
2018-06-29T04:39:01.497Z,10.20
2018-06-29T04:40:01.486Z,5.10
2018-06-29T04:41:01.468Z,7.20
2018-06-29T04:42:01.454Z,6.70
2018-06-29T04:43:01.442Z,7.00
2018-06-29T04:44:01.426Z,7.00
2018-06-29T04:45:01.411Z,7.10
2018-06-29T04:46:01.396Z,8.30
2018-06-29T04:47:01.382Z,6.30
2018-06-29T04:48:01.374Z,10.00
2018-06-29T04:49:01.370Z,7.80
2018-06-29T04:50:01.337Z,6.80
2018-06-29T04:51:01.322Z,8.30
2018-06-29T04:52:01.308Z,7.80
2018-06-29T04:53:01.295Z,10.20
2018-06-29T04:54:01.279Z,10.10
2018-06-29T04:55:01.264Z,12.20
2018-06-29T04:56:01.252Z,7.80
2018-06-29T04:57:01.284Z,13.30
2018-06-29T04:58:01.221Z,8.80
2018-06-29T04:59:01.212Z,10.80
2018-06-29T05:00:01.191Z,6.40
2018-06-29T05:01:01.277Z,9.30
2018-06-29T05:02:01.161Z,9.40
2018-06-29T05:03:01.147Z,7.00
2018-06-29T05:04:01.132Z,10.00
2018-06-29T05:05:01.116Z,6.40
2018-06-29T05:06:01.106Z,7.30
2018-06-29T05:07:01.091Z,10.00
2018-06-29T05:08:01.081Z,9.30
2018-06-29T05:09:01.059Z,9.70
2018-06-29T05:10:01.044Z,9.80
2018-06-29T05:11:01.039Z,7.70
2018-06-29T05:12:01.014Z,10.20
2018-06-29T05:13:01.001Z,8.70
2018-06-29T05:14:00.986Z,8.80
2018-06-29T05:15:00.971Z,12.00
2018-06-29T05:16:00.968Z,9.50
2018-06-29T05:17:00.941Z,10.80
2018-06-29T05:18:00.937Z,9.20
2018-06-29T05:19:00.912Z,10.90
2018-06-29T05:20:00.911Z,7.90
2018-06-29T05:21:00.989Z,9.50
2018-06-29T05:22:00.875Z,12.50
2018-06-29T05:23:00.854Z,12.20
2018-06-29T05:24:00.841Z,9.10
2018-06-29T05:25:00.825Z,10.00
2018-06-29T05:26:00.819Z,9.20
2018-06-29T05:27:00.805Z,10.30
2018-06-29T05:28:00.783Z,8.60
2018-06-29T05:29:00.769Z,11.80
2018-06-29T05:30:00.754Z,8.30
2018-06-29T05:31:00.740Z,9.00
2018-06-29T05:32:00.743Z,12.30
2018-06-29T05:33:00.709Z,8.80
2018-06-29T05:34:00.697Z,11.40
2018-06-29T05:35:00.683Z,11.80
2018-06-29T05:36:00.669Z,9.60
2018-06-29T05:37:00.653Z,13.20
2018-06-29T05:38:00.640Z,11.40
2018-06-29T05:39:00.626Z,8.40
2018-06-29T05:40:00.669Z,9.00
2018-06-29T05:41:00.594Z,10.00
2018-06-29T05:42:00.583Z,9.60
2018-06-29T05:43:00.568Z,14.10
2018-06-29T05:44:00.554Z,12.20
2018-06-29T05:45:00.538Z,9.70
2018-06-29T05:46:00.533Z,9.70
2018-06-29T05:47:00.583Z,10.50
2018-06-29T05:48:00.498Z,9.40
2018-06-29T05:49:00.489Z,17.90
2018-06-29T05:50:00.467Z,9.10
2018-06-29T05:51:00.458Z,10.20
2018-06-29T05:52:00.445Z,10.00
2018-06-29T05:53:00.489Z,16.20
2018-06-29T05:54:00.419Z,10.00
2018-06-29T05:55:00.412Z,11.20
2018-06-29T05:56:00.501Z,8.30
2018-06-29T05:57:00.385Z,10.60
2018-06-29T05:58:00.384Z,10.70
2018-06-29T05:59:00.366Z,11.70
2018-06-29T06:00:00.366Z,13.30
2018-06-29T06:01:00.348Z,8.80
2018-06-29T06:02:00.365Z,9.60
2018-06-29T06:03:00.330Z,8.30
2018-06-29T06:04:00.325Z,9.90
2018-06-29T06:05:00.320Z,10.20
2018-06-29T06:06:00.305Z,9.10
2018-06-29T06:07:00.299Z,12.40
2018-06-29T06:08:00.302Z,8.40
2018-06-29T06:09:00.291Z,9.90
2018-06-29T06:10:00.296Z,11.10
2018-06-29T06:11:00.273Z,9.80
2018-06-29T06:12:00.270Z,10.00
2018-06-29T06:13:00.264Z,8.20
2018-06-29T06:14:00.258Z,11.90
2018-06-29T06:15:00.254Z,8.10
2018-06-29T06:16:00.268Z,10.00
2018-06-29T06:17:00.255Z,6.80
2018-06-29T06:18:00.242Z,11.30
2018-06-29T06:19:00.237Z,8.50
2018-06-29T06:20:00.237Z,9.20
2018-06-29T06:21:00.230Z,9.30
2018-06-29T06:22:00.280Z,10.00
2018-06-29T06:23:00.224Z,7.40
2018-06-29T06:24:00.227Z,9.30
2018-06-29T06:25:00.222Z,9.00
2018-06-29T06:26:00.218Z,8.70
2018-06-29T06:27:00.216Z,6.70
2018-06-29T06:28:00.215Z,8.50
2018-06-29T06:29:00.211Z,7.90
2018-06-29T06:30:00.211Z,9.60
2018-06-29T06:31:00.217Z,10.80
2018-06-29T06:32:00.208Z,9.60
2018-06-29T06:33:00.249Z,7.40
2018-06-29T06:34:00.207Z,6.60
2018-06-29T06:35:00.207Z,9.00
2018-06-29T06:36:00.213Z,10.20
2018-06-29T06:37:00.205Z,11.10
2018-06-29T06:38:00.213Z,9.40
2018-06-29T06:39:00.214Z,8.00
2018-06-29T06:40:00.206Z,10.40
2018-06-29T06:41:00.205Z,7.00
2018-06-29T06:42:00.222Z,10.40
2018-06-29T06:43:00.207Z,9.60
2018-06-29T06:44:00.209Z,10.30
2018-06-29T06:45:00.210Z,10.00
2018-06-29T06:46:00.214Z,8.00
2018-06-29T06:47:00.297Z,8.80
2018-06-29T06:48:00.212Z,8.30
2018-06-29T06:49:00.213Z,8.80
2018-06-29T06:50:00.215Z,7.90
2018-06-29T06:51:00.216Z,7.30
2018-06-29T06:52:00.219Z,12.00
2018-06-29T06:53:00.222Z,8.70
2018-06-29T06:54:00.221Z,8.30
2018-06-29T06:55:00.544Z,7.60
2018-06-29T06:56:00.226Z,6.20
2018-06-29T06:57:00.238Z,8.20
2018-06-29T06:58:00.231Z,6.00
2018-06-29T06:59:00.244Z,7.10
2018-06-29T07:00:00.237Z,10.70
2018-06-29T07:01:00.289Z,7.90
2018-06-29T07:02:00.242Z,8.90
2018-06-29T07:03:00.260Z,8.90
2018-06-29T07:04:00.254Z,7.40
2018-06-29T07:05:00.254Z,6.20
2018-06-29T07:06:00.254Z,6.60
2018-06-29T07:07:00.257Z,8.90
2018-06-29T07:08:00.277Z,10.10
2018-06-29T07:09:00.263Z,7.60
2018-06-29T07:10:00.266Z,12.20
2018-06-29T07:11:00.271Z,9.70
2018-06-29T07:12:00.276Z,10.00
2018-06-29T07:13:00.279Z,8.50
2018-06-29T07:14:00.282Z,8.60
2018-06-29T07:15:00.287Z,7.80
2018-06-29T07:16:00.299Z,6.50
2018-06-29T07:17:00.298Z,9.80
2018-06-29T07:18:00.299Z,7.80
2018-06-29T07:19:00.301Z,8.70
2018-06-29T07:20:00.306Z,9.00
2018-06-29T07:21:00.309Z,9.60
2018-06-29T07:22:00.312Z,10.00
2018-06-29T07:23:00.317Z,8.10
2018-06-29T07:24:00.325Z,8.30
2018-06-29T07:25:00.332Z,9.70
2018-06-29T07:26:00.329Z,7.70
2018-06-29T07:27:00.333Z,8.30
2018-06-29T07:28:00.345Z,8.90
2018-06-29T07:29:00.340Z,9.10
2018-06-29T07:30:00.387Z,8.70
2018-06-29T07:31:00.356Z,6.40
2018-06-29T07:32:00.356Z,8.00
2018-06-29T07:33:00.359Z,10.90
2018-06-29T07:34:00.364Z,5.90
2018-06-29T07:35:00.380Z,6.20
2018-06-29T07:36:00.376Z,7.40
2018-06-29T07:37:00.397Z,8.40
2018-06-29T07:38:00.388Z,7.80
2018-06-29T07:39:00.392Z,7.20
2018-06-29T07:40:00.394Z,8.10
2018-06-29T07:41:00.399Z,8.80
2018-06-29T07:42:00.409Z,8.90
2018-06-29T07:43:00.409Z,7.50
2018-06-29T07:44:00.416Z,9.20
2018-06-29T07:45:00.430Z,11.80
2018-06-29T07:46:00.422Z,8.80
2018-06-29T07:47:00.427Z,8.90
2018-06-29T07:48:00.433Z,9.50
2018-06-29T07:49:00.440Z,7.10
2018-06-29T07:50:00.437Z,5.60
2018-06-29T07:51:00.440Z,8.30
2018-06-29T07:52:00.445Z,7.30
2018-06-29T07:53:00.447Z,7.10
2018-06-29T07:54:00.445Z,7.70
2018-06-29T07:55:00.456Z,7.40
2018-06-29T07:56:00.457Z,6.50
2018-06-29T07:57:00.445Z,8.70
2018-06-29T07:58:00.495Z,8.90
2018-06-29T07:59:00.451Z,11.80
2018-06-29T08:00:00.447Z,10.70
2018-06-29T08:01:00.443Z,7.10
2018-06-29T08:02:00.445Z,6.90
2018-06-29T08:03:00.452Z,6.90
2018-06-29T08:04:00.531Z,7.30
2018-06-29T08:05:00.440Z,6.40
2018-06-29T08:06:00.446Z,7.50
2018-06-29T08:07:00.435Z,9.40
2018-06-29T08:08:00.484Z,9.70
2018-06-29T08:09:00.444Z,6.20
2018-06-29T08:10:00.427Z,6.40
2018-06-29T08:11:00.425Z,6.30
2018-06-29T08:12:00.429Z,8.20
2018-06-29T08:13:00.427Z,10.00
2018-06-29T08:14:00.419Z,7.00
2018-06-29T08:15:00.416Z,5.50
2018-06-29T08:16:00.414Z,6.40
2018-06-29T08:17:00.409Z,6.50
2018-06-29T08:18:00.409Z,7.80
2018-06-29T08:19:00.407Z,6.60
2018-06-29T08:20:00.401Z,8.10
2018-06-29T08:21:00.400Z,6.00
2018-06-29T08:22:00.397Z,10.80
2018-06-29T08:23:00.394Z,5.60
2018-06-29T08:24:00.392Z,6.80
2018-06-29T08:25:00.388Z,6.00
2018-06-29T08:26:00.387Z,6.70
2018-06-29T08:27:00.392Z,7.90
2018-06-29T08:28:00.380Z,7.60
2018-06-29T08:29:00.379Z,5.10
2018-06-29T08:30:00.383Z,5.70
2018-06-29T08:31:00.368Z,7.00
2018-06-29T08:32:00.363Z,7.00
2018-06-29T08:33:00.359Z,9.60
2018-06-29T08:34:00.353Z,6.30
2018-06-29T08:35:00.359Z,7.10
2018-06-29T08:36:00.355Z,8.40
2018-06-29T08:37:00.346Z,6.80
2018-06-29T08:38:00.341Z,6.30
2018-06-29T08:39:00.389Z,5.80
2018-06-29T08:40:00.327Z,6.30
2018-06-29T08:41:00.320Z,6.30
2018-06-29T08:42:00.312Z,7.00
2018-06-29T08:43:00.309Z,5.20
2018-06-29T08:44:00.312Z,4.60
2018-06-29T08:45:00.298Z,5.10
2018-06-29T08:46:00.290Z,7.10
2018-06-29T08:47:00.300Z,6.40
2018-06-29T08:48:00.278Z,4.00
2018-06-29T08:49:00.293Z,9.30
2018-06-29T08:50:00.266Z,7.70
2018-06-29T08:51:00.267Z,3.70
2018-06-29T08:52:00.263Z,4.20
2018-06-29T08:53:00.250Z,3.80
2018-06-29T08:54:00.240Z,5.90
2018-06-29T08:55:00.272Z,8.30
2018-06-29T08:56:00.227Z,6.00
2018-06-29T08:57:00.225Z,4.80
2018-06-29T08:58:00.214Z,4.10
2018-06-29T08:59:00.215Z,4.20
2018-06-29T09:00:00.200Z,3.90
2018-06-29T09:01:00.192Z,3.50
2018-06-29T09:02:00.186Z,5.20
2018-06-29T09:03:00.181Z,4.70
2018-06-29T09:04:00.173Z,3.60
2018-06-29T09:05:00.252Z,3.90
2018-06-29T09:06:00.171Z,4.90
2018-06-29T09:07:00.174Z,5.10
2018-06-29T09:08:00.147Z,7.10
2018-06-29T09:09:00.146Z,6.40
2018-06-29T09:10:00.131Z,7.20
2018-06-29T09:11:00.173Z,3.70
2018-06-29T09:12:00.136Z,4.40
2018-06-29T09:13:00.114Z,6.00
2018-06-29T09:14:00.109Z,4.70
2018-06-29T09:15:00.111Z,6.60
2018-06-29T09:16:00.100Z,8.30
2018-06-29T09:17:00.095Z,6.60
2018-06-29T09:18:00.096Z,7.80
2018-06-29T09:19:00.154Z,6.10
2018-06-29T09:20:00.086Z,5.60
2018-06-29T09:21:00.088Z,5.00
2018-06-29T09:22:00.081Z,4.70
2018-06-29T09:23:00.078Z,8.80
2018-06-29T09:24:00.078Z,5.10
2018-06-29T09:25:00.083Z,4.20
2018-06-29T09:26:00.077Z,8.90
2018-06-29T09:27:00.083Z,4.70
2018-06-29T09:28:00.076Z,8.10
2018-06-29T09:29:00.078Z,4.40
2018-06-29T09:30:00.102Z,6.60
2018-06-29T09:31:00.076Z,4.80
2018-06-29T09:32:00.082Z,7.00
2018-06-29T09:33:00.076Z,5.50
2018-06-29T09:34:00.078Z,5.90
2018-06-29T09:35:00.081Z,5.90
2018-06-29T09:36:00.093Z,5.90
2018-06-29T09:37:00.081Z,3.60
2018-06-29T09:38:00.080Z,5.90
2018-06-29T09:39:00.093Z,5.90
2018-06-29T09:40:00.086Z,6.10
2018-06-29T09:41:00.084Z,6.60
2018-06-29T09:42:00.088Z,4.80
2018-06-29T09:43:00.088Z,3.70
2018-06-29T09:44:00.087Z,3.50
2018-06-29T09:45:00.090Z,4.40
2018-06-29T09:46:00.092Z,4.30
2018-06-29T09:47:00.094Z,3.50
2018-06-29T09:48:00.127Z,5.50
2018-06-29T09:49:00.097Z,5.70
2018-06-29T09:50:00.112Z,3.70
2018-06-29T09:51:00.103Z,3.90
2018-06-29T09:52:00.208Z,4.20
2018-06-29T09:53:00.114Z,4.70
2018-06-29T09:54:00.161Z,5.60
2018-06-29T09:55:00.110Z,8.40
2018-06-29T09:56:00.113Z,5.10
2018-06-29T09:57:00.113Z,5.10
2018-06-29T09:58:00.115Z,5.90
2018-06-29T09:59:00.123Z,3.60
2018-06-29T10:00:00.151Z,5.40
2018-06-29T10:01:00.202Z,3.90
2018-06-29T10:02:00.127Z,4.90
2018-06-29T10:03:00.124Z,4.30
2018-06-29T10:04:00.124Z,5.40
2018-06-29T10:05:00.123Z,8.40
2018-06-29T10:06:00.130Z,3.20
2018-06-29T10:07:00.126Z,4.90
2018-06-29T10:08:00.126Z,4.50
2018-06-29T10:09:00.127Z,4.80
2018-06-29T10:10:00.135Z,5.70
2018-06-29T10:11:00.130Z,2.90
2018-06-29T10:12:00.137Z,6.20
2018-06-29T10:13:00.175Z,5.90
2018-06-29T10:14:00.147Z,4.80
2018-06-29T10:15:00.140Z,3.90
2018-06-29T10:16:00.141Z,4.10
2018-06-29T10:17:00.156Z,3.70
2018-06-29T10:18:00.147Z,3.70
2018-06-29T10:19:00.148Z,9.90
2018-06-29T10:20:00.275Z,4.40
2018-06-29T10:21:00.156Z,5.70
2018-06-29T10:22:00.180Z,4.30
2018-06-29T10:23:00.171Z,5.10
2018-06-29T10:24:00.183Z,4.10
2018-06-29T10:25:00.174Z,4.20
2018-06-29T10:26:00.187Z,2.50
2018-06-29T10:27:00.187Z,3.30
2018-06-29T10:28:00.202Z,5.60
2018-06-29T10:29:00.198Z,4.60
2018-06-29T10:30:00.208Z,5.00
2018-06-29T10:31:00.214Z,5.10
2018-06-29T10:32:00.222Z,3.20
2018-06-29T10:33:00.389Z,3.20
2018-06-29T10:34:00.236Z,5.90
2018-06-29T10:35:00.243Z,5.30
2018-06-29T10:36:00.310Z,3.50
2018-06-29T10:37:00.270Z,2.50
2018-06-29T10:38:00.274Z,3.00
2018-06-29T10:39:00.278Z,4.20
2018-06-29T10:40:00.286Z,2.60
2018-06-29T10:41:00.296Z,3.70
2018-06-29T10:42:00.304Z,4.60
2018-06-29T10:43:00.317Z,6.20
2018-06-29T10:44:00.321Z,3.00
2018-06-29T10:45:00.394Z,3.70
2018-06-29T10:46:00.340Z,5.10
2018-06-29T10:47:00.351Z,3.30
2018-06-29T10:48:00.360Z,2.70
2018-06-29T10:49:00.377Z,2.70
2018-06-29T10:50:00.382Z,3.40
2018-06-29T10:51:00.391Z,3.50
2018-06-29T10:52:00.402Z,4.80
2018-06-29T10:53:00.412Z,7.10
2018-06-29T10:54:00.439Z,2.90
2018-06-29T10:55:00.445Z,2.90
2018-06-29T10:56:00.447Z,3.90
2018-06-29T10:57:00.450Z,4.60
2018-06-29T10:58:00.459Z,2.40
2018-06-29T10:59:00.471Z,4.40
2018-06-29T11:00:00.479Z,3.50
2018-06-29T11:01:00.498Z,3.70
2018-06-29T11:02:00.503Z,2.60
2018-06-29T11:03:00.534Z,4.60
2018-06-29T11:04:00.534Z,3.40
2018-06-29T11:05:00.533Z,1.90
2018-06-29T11:06:00.744Z,4.30
2018-06-29T11:07:00.558Z,5.70
2018-06-29T11:08:00.562Z,7.30
2018-06-29T11:09:00.571Z,3.30
2018-06-29T11:10:00.585Z,4.30
2018-06-29T11:11:00.623Z,3.10
2018-06-29T11:12:00.621Z,2.90
2018-06-29T11:13:00.616Z,2.50
2018-06-29T11:14:00.634Z,3.30
2018-06-29T11:15:00.650Z,3.30
2018-06-29T11:16:00.654Z,4.20
2018-06-29T11:17:00.655Z,2.60
2018-06-29T11:18:00.665Z,3.20
2018-06-29T11:19:00.685Z,4.00
2018-06-29T11:20:00.686Z,2.00
2018-06-29T11:21:00.812Z,3.80
2018-06-29T11:22:00.714Z,2.30
2018-06-29T11:23:00.717Z,3.20
2018-06-29T11:24:00.725Z,4.30
2018-06-29T11:25:00.743Z,4.60
2018-06-29T11:26:00.749Z,4.60
2018-06-29T11:27:00.767Z,5.10
2018-06-29T11:28:00.768Z,3.00
2018-06-29T11:29:00.777Z,4.00
2018-06-29T11:30:00.788Z,3.50
2018-06-29T11:31:00.798Z,3.50
2018-06-29T11:32:00.821Z,3.80
2018-06-29T11:33:00.823Z,3.40
2018-06-29T11:34:00.828Z,2.90
2018-06-29T11:35:00.848Z,3.30
2018-06-29T11:36:00.854Z,5.60
2018-06-29T11:37:00.863Z,4.90
2018-06-29T11:38:00.872Z,4.20
2018-06-29T11:39:00.879Z,3.00
2018-06-29T11:40:00.892Z,3.10
2018-06-29T11:41:00.900Z,3.30
2018-06-29T11:42:00.911Z,2.60
2018-06-29T11:43:00.922Z,3.90
2018-06-29T11:44:00.957Z,3.40
2018-06-29T11:45:00.935Z,3.40
2018-06-29T11:46:00.950Z,6.30
2018-06-29T11:47:00.973Z,4.30
2018-06-29T11:48:00.967Z,3.80
2018-06-29T11:49:00.970Z,2.60
2018-06-29T11:50:00.973Z,6.10
2018-06-29T11:51:00.983Z,3.80
2018-06-29T11:52:00.991Z,2.80
2018-06-29T11:53:00.992Z,3.50
2018-06-29T11:54:00.997Z,4.40
2018-06-29T11:55:01.003Z,2.80
2018-06-29T11:56:01.004Z,5.00
2018-06-29T11:57:01.014Z,3.70
2018-06-29T11:58:01.030Z,8.00
2018-06-29T11:59:01.022Z,4.60
2018-06-29T12:00:01.013Z,3.90
2018-06-29T12:01:01.014Z,3.00
2018-06-29T12:02:01.027Z,6.50
2018-06-29T12:03:01.017Z,5.10
2018-06-29T12:04:01.027Z,4.20
2018-06-29T12:05:01.020Z,3.40
2018-06-29T12:06:01.030Z,3.20
2018-06-29T12:07:01.022Z,6.40
2018-06-29T12:08:01.020Z,4.60
2018-06-29T12:09:01.019Z,10.20
2018-06-29T12:10:01.023Z,7.20
2018-06-29T12:11:01.019Z,5.40
2018-06-29T12:12:01.066Z,6.70
2018-06-29T12:13:01.028Z,4.10
2018-06-29T12:14:01.012Z,3.00
2018-06-29T12:15:01.118Z,7.60
2018-06-29T12:16:01.017Z,4.30
2018-06-29T12:17:01.011Z,4.40
2018-06-29T12:18:01.007Z,4.10
2018-06-29T12:19:01.007Z,4.10
2018-06-29T12:20:01.007Z,4.90
2018-06-29T12:21:00.995Z,4.80
2018-06-29T12:22:00.997Z,4.30
2018-06-29T12:23:01.001Z,6.10
2018-06-29T12:24:00.991Z,4.10
2018-06-29T12:25:00.985Z,6.70
2018-06-29T12:26:00.985Z,5.10
2018-06-29T12:27:00.987Z,5.90
2018-06-29T12:28:01.026Z,6.20
2018-06-29T12:29:00.975Z,7.00
2018-06-29T12:30:00.970Z,3.30
2018-06-29T12:31:00.963Z,3.70
2018-06-29T12:32:00.967Z,4.10
2018-06-29T12:33:00.958Z,3.30
2018-06-29T12:34:00.952Z,7.50
2018-06-29T12:35:00.956Z,6.00
2018-06-29T12:36:00.946Z,3.80
2018-06-29T12:37:00.937Z,3.10
2018-06-29T12:38:01.000Z,3.80
2018-06-29T12:39:00.928Z,5.40
2018-06-29T12:40:00.924Z,5.50
2018-06-29T12:41:00.923Z,7.00
2018-06-29T12:42:00.930Z,3.70
2018-06-29T12:43:00.910Z,8.30
2018-06-29T12:44:00.905Z,3.10
2018-06-29T12:45:00.908Z,6.30
2018-06-29T12:46:00.946Z,3.50
2018-06-29T12:47:00.896Z,4.40
2018-06-29T12:48:00.894Z,5.80
2018-06-29T12:49:00.880Z,4.20
2018-06-29T12:50:00.883Z,4.60
2018-06-29T12:51:01.022Z,2.70
2018-06-29T12:52:00.864Z,4.30
2018-06-29T12:53:00.857Z,3.50
2018-06-29T12:54:00.856Z,4.70
2018-06-29T12:55:00.850Z,3.70
2018-06-29T12:56:00.857Z,8.70
2018-06-29T12:57:00.844Z,4.70
2018-06-29T12:58:00.832Z,3.60
2018-06-29T12:59:00.929Z,5.30
2018-06-29T13:00:00.822Z,5.10
2018-06-29T13:01:00.818Z,3.80
2018-06-29T13:02:00.813Z,3.50
2018-06-29T13:03:00.804Z,3.70
2018-06-29T13:04:00.832Z,2.60
2018-06-29T13:05:00.794Z,4.20
2018-06-29T13:06:00.796Z,3.50
2018-06-29T13:07:00.782Z,3.00
2018-06-29T13:08:00.779Z,4.30
2018-06-29T13:09:00.771Z,3.80
2018-06-29T13:10:00.767Z,6.70
2018-06-29T13:11:00.763Z,3.50
2018-06-29T13:12:00.754Z,2.70
2018-06-29T13:13:00.748Z,4.70
2018-06-29T13:14:00.742Z,3.20
2018-06-29T13:15:00.738Z,2.30
2018-06-29T13:16:00.733Z,6.30